sensor_id;sensor_type;location;lat;lon;timestamp;pressure;altitude;pressure_sealevel;temperature
64600;BMP280;6553;48.412;9.514;2023-05-07T00:00:17;71714.91;;;20.36
64600;BMP280;6553;48.412;9.514;2023-05-07T00:02:45;71720.47;;;20.36
64600;BMP280;6553;48.412;9.514;2023-05-07T00:05:11;71717.16;;;20.35
64600;BMP280;6553;48.412;9.514;2023-05-07T00:07:37;71719.94;;;20.35
64600;BMP280;6553;48.412;9.514;2023-05-07T00:10:04;71714.41;;;20.35
64600;BMP280;6553;48.412;9.514;2023-05-07T00:12:32;71719.94;;;20.35
64600;BMP280;6553;48.412;9.514;2023-05-07T00:15:03;71715.44;;;20.36
64600;BMP280;6553;48.412;9.514;2023-05-07T00:17:30;71713.34;;;20.34
64600;BMP280;6553;48.412;9.514;2023-05-07T00:19:55;71713.34;;;20.34
64600;BMP280;6553;48.412;9.514;2023-05-07T00:22:21;71712.81;;;20.34
64600;BMP280;6553;48.412;9.514;2023-05-07T00:24:47;71711.72;;;20.33
64600;BMP280;6553;48.412;9.514;2023-05-07T00:27:13;71720.59;;;20.33
64600;BMP280;6553;48.412;9.514;2023-05-07T00:29:39;71711.72;;;20.33
64600;BMP280;6553;48.412;9.514;2023-05-07T00:32:05;71711.72;;;20.33
64600;BMP280;6553;48.412;9.514;2023-05-07T00:34:30;71717.28;;;20.33
64600;BMP280;6553;48.412;9.514;2023-05-07T00:36:56;71716.63;;;20.35
64600;BMP280;6553;48.412;9.514;2023-05-07T00:39:22;71714.41;;;20.35
64600;BMP280;6553;48.412;9.514;2023-05-07T00:41:47;71715.59;;;20.34
64600;BMP280;6553;48.412;9.514;2023-05-07T00:44:13;71718.34;;;20.34
64600;BMP280;6553;48.412;9.514;2023-05-07T00:46:40;71711.72;;;20.33
64600;BMP280;6553;48.412;9.514;2023-05-07T00:49:06;71718.88;;;20.34
64600;BMP280;6553;48.412;9.514;2023-05-07T00:51:33;71711.19;;;20.32
64600;BMP280;6553;48.412;9.514;2023-05-07T00:54:02;71711.19;;;20.32
64600;BMP280;6553;48.412;9.514;2023-05-07T00:56:28;71710.16;;;20.31
64600;BMP280;6553;48.412;9.514;2023-05-07T00:58:55;71708.44;;;20.32
64600;BMP280;6553;48.412;9.514;2023-05-07T01:01:21;71711.19;;;20.32
64600;BMP280;6553;48.412;9.514;2023-05-07T01:03:47;71712.91;;;20.31
64600;BMP280;6553;48.412;9.514;2023-05-07T01:06:13;71709.75;;;20.28
64600;BMP280;6553;48.412;9.514;2023-05-07T01:08:42;71711.34;;;20.30
64600;BMP280;6553;48.412;9.514;2023-05-07T01:11:09;71714.63;;;20.30
64600;BMP280;6553;48.412;9.514;2023-05-07T01:13:37;71715.16;;;20.31
64600;BMP280;6553;48.412;9.514;2023-05-07T01:16:04;71705.25;;;20.29
64600;BMP280;6553;48.412;9.514;2023-05-07T01:18:30;71705.78;;;20.30
64600;BMP280;6553;48.412;9.514;2023-05-07T01:20:58;71711.34;;;20.30
64600;BMP280;6553;48.412;9.514;2023-05-07T01:23:27;71710.78;;;20.29
64600;BMP280;6553;48.412;9.514;2023-05-07T01:25:54;71708.44;;;20.32
64600;BMP280;6553;48.412;9.514;2023-05-07T01:28:22;71715.69;;;20.31
64600;BMP280;6553;48.412;9.514;2023-05-07T01:30:57;71714.63;;;20.30
64600;BMP280;6553;48.412;9.514;2023-05-07T01:33:29;71709.59;;;20.31
64600;BMP280;6553;48.412;9.514;2023-05-07T01:35:58;71710.16;;;20.31
64600;BMP280;6553;48.412;9.514;2023-05-07T01:38:28;71705.78;;;20.30
64600;BMP280;6553;48.412;9.514;2023-05-07T01:40:55;71705.34;;;20.27
64600;BMP280;6553;48.412;9.514;2023-05-07T01:43:21;71704.19;;;20.28
64600;BMP280;6553;48.412;9.514;2023-05-07T01:45:47;71709.19;;;20.28
64600;BMP280;6553;48.412;9.514;2023-05-07T01:48:15;71704.19;;;20.28
64600;BMP280;6553;48.412;9.514;2023-05-07T01:50:43;71705.91;;;20.27
64600;BMP280;6553;48.412;9.514;2023-05-07T01:53:08;71712.50;;;20.28
64600;BMP280;6553;48.412;9.514;2023-05-07T01:55:34;71705.91;;;20.27
64600;BMP280;6553;48.412;9.514;2023-05-07T01:58:03;71710.25;;;20.29
64600;BMP280;6553;48.412;9.514;2023-05-07T02:00:29;71711.44;;;20.27
64600;BMP280;6553;48.412;9.514;2023-05-07T02:02:55;71709.75;;;20.28
64600;BMP280;6553;48.412;9.514;2023-05-07T02:05:30;71708.13;;;20.27
64600;BMP280;6553;48.412;9.514;2023-05-07T02:08:15;71708.66;;;20.27
64600;BMP280;6553;48.412;9.514;2023-05-07T02:10:41;71706.97;;;20.28
64600;BMP280;6553;48.412;9.514;2023-05-07T02:13:07;71710.78;;;20.29
64600;BMP280;6553;48.412;9.514;2023-05-07T02:15:32;71707.06;;;20.26
64600;BMP280;6553;48.412;9.514;2023-05-07T02:18:04;71709.19;;;20.28
64600;BMP280;6553;48.412;9.514;2023-05-07T02:20:30;71707.59;;;20.26
64600;BMP280;6553;48.412;9.514;2023-05-07T02:22:56;71703.13;;;20.27
64600;BMP280;6553;48.412;9.514;2023-05-07T02:25:22;71711.97;;;20.28
64600;BMP280;6553;48.412;9.514;2023-05-07T02:27:48;71701.53;;;20.26
64600;BMP280;6553;48.412;9.514;2023-05-07T02:30:14;71707.59;;;20.26
64600;BMP280;6553;48.412;9.514;2023-05-07T02:32:41;71708.13;;;20.27
64600;BMP280;6553;48.412;9.514;2023-05-07T02:35:07;71709.97;;;20.23
64600;BMP280;6553;48.412;9.514;2023-05-07T02:37:33;71702.72;;;20.24
64600;BMP280;6553;48.412;9.514;2023-05-07T02:39:59;71701.66;;;20.23
64600;BMP280;6553;48.412;9.514;2023-05-07T02:42:25;71706.03;;;20.25
64600;BMP280;6553;48.412;9.514;2023-05-07T02:44:50;71703.25;;;20.25
64600;BMP280;6553;48.412;9.514;2023-05-07T02:47:17;71701.09;;;20.23
64600;BMP280;6553;48.412;9.514;2023-05-07T02:49:44;71706.03;;;20.25
64600;BMP280;6553;48.412;9.514;2023-05-07T02:52:09;71699.41;;;20.24
64600;BMP280;6553;48.412;9.514;2023-05-07T02:54:35;71703.88;;;20.23
64600;BMP280;6553;48.412;9.514;2023-05-07T02:57:01;71702.19;;;20.24
64600;BMP280;6553;48.412;9.514;2023-05-07T02:59:27;71704.41;;;20.23
64600;BMP280;6553;48.412;9.514;2023-05-07T03:01:53;71701.00;;;20.25
64600;BMP280;6553;48.412;9.514;2023-05-07T03:04:20;71698.34;;;20.23
64600;BMP280;6553;48.412;9.514;2023-05-07T03:06:46;71706.03;;;20.25
64600;BMP280;6553;48.412;9.514;2023-05-07T03:09:12;71697.81;;;20.22
64600;BMP280;6553;48.412;9.514;2023-05-07T03:11:38;71701.09;;;20.23
64600;BMP280;6553;48.412;9.514;2023-05-07T03:14:04;71701.25;;;20.20
64600;BMP280;6553;48.412;9.514;2023-05-07T03:16:30;71702.81;;;20.22
64600;BMP280;6553;48.412;9.514;2023-05-07T03:18:56;71700.56;;;20.22
64600;BMP280;6553;48.412;9.514;2023-05-07T03:21:22;71704.41;;;20.23
64600;BMP280;6553;48.412;9.514;2023-05-07T03:23:48;71703.34;;;20.22
64600;BMP280;6553;48.412;9.514;2023-05-07T03:26:13;71700.56;;;20.22
64600;BMP280;6553;48.412;9.514;2023-05-07T03:28:40;71701.09;;;20.23
64600;BMP280;6553;48.412;9.514;2023-05-07T03:31:10;71702.81;;;20.22
64600;BMP280;6553;48.412;9.514;2023-05-07T03:33:53;71700.06;;;20.22
64600;BMP280;6553;48.412;9.514;2023-05-07T03:36:20;71705.59;;;20.22
64600;BMP280;6553;48.412;9.514;2023-05-07T03:38:47;71696.78;;;20.21
64600;BMP280;6553;48.412;9.514;2023-05-07T03:41:16;71698.47;;;20.20
64600;BMP280;6553;48.412;9.514;2023-05-07T03:43:44;71696.22;;;20.21
64600;BMP280;6553;48.412;9.514;2023-05-07T03:46:11;71703.47;;;20.20
64600;BMP280;6553;48.412;9.514;2023-05-07T03:48:37;71699.53;;;20.21
64600;BMP280;6553;48.412;9.514;2023-05-07T03:51:04;71704.00;;;20.20
64600;BMP280;6553;48.412;9.514;2023-05-07T03:53:32;71702.94;;;20.19
64600;BMP280;6553;48.412;9.514;2023-05-07T03:55:58;71701.88;;;20.18
64600;BMP280;6553;48.412;9.514;2023-05-07T03:58:23;71699.63;;;20.19
64600;BMP280;6553;48.412;9.514;2023-05-07T04:00:50;71695.16;;;20.20
64600;BMP280;6553;48.412;9.514;2023-05-07T04:03:24;71701.88;;;20.18
64600;BMP280;6553;48.412;9.514;2023-05-07T04:05:51;71694.63;;;20.19
64600;BMP280;6553;48.412;9.514;2023-05-07T04:08:17;71700.69;;;20.20
64600;BMP280;6553;48.412;9.514;2023-05-07T04:10:46;71692.53;;;20.17
64600;BMP280;6553;48.412;9.514;2023-05-07T04:13:13;71693.56;;;20.18
64600;BMP280;6553;48.412;9.514;2023-05-07T04:15:39;71693.56;;;20.18
64600;BMP280;6553;48.412;9.514;2023-05-07T04:18:08;71698.06;;;20.17
64600;BMP280;6553;48.412;9.514;2023-05-07T04:20:35;71698.56;;;20.18
64600;BMP280;6553;48.412;9.514;2023-05-07T04:23:03;71689.84;;;20.15
64600;BMP280;6553;48.412;9.514;2023-05-07T04:25:30;71697.00;;;20.16
64600;BMP280;6553;48.412;9.514;2023-05-07T04:28:03;71698.06;;;20.17
64600;BMP280;6553;48.412;9.514;2023-05-07T04:30:29;71702.41;;;20.19
64600;BMP280;6553;48.412;9.514;2023-05-07T04:32:55;71699.63;;;20.19
64600;BMP280;6553;48.412;9.514;2023-05-07T04:35:23;71697.00;;;20.16
64600;BMP280;6553;48.412;9.514;2023-05-07T04:37:49;71692.53;;;20.17
64600;BMP280;6553;48.412;9.514;2023-05-07T04:40:15;71691.97;;;20.17
64600;BMP280;6553;48.412;9.514;2023-05-07T04:42:42;71697.53;;;20.17
64600;BMP280;6553;48.412;9.514;2023-05-07T04:45:09;71697.53;;;20.17
64600;BMP280;6553;48.412;9.514;2023-05-07T04:47:37;71691.97;;;20.17
64600;BMP280;6553;48.412;9.514;2023-05-07T04:50:03;71697.00;;;20.16
64600;BMP280;6553;48.412;9.514;2023-05-07T04:52:28;71695.91;;;20.15
64600;BMP280;6553;48.412;9.514;2023-05-07T04:54:54;71691.44;;;20.16
64600;BMP280;6553;48.412;9.514;2023-05-07T04:57:20;71694.22;;;20.16
64600;BMP280;6553;48.412;9.514;2023-05-07T04:59:47;71695.91;;;20.15
64600;BMP280;6553;48.412;9.514;2023-05-07T05:02:13;71700.28;;;20.17
64600;BMP280;6553;48.412;9.514;2023-05-07T05:04:39;71694.88;;;20.14
64600;BMP280;6553;48.412;9.514;2023-05-07T05:07:06;71695.91;;;20.15
64600;BMP280;6553;48.412;9.514;2023-05-07T05:09:31;71693.69;;;20.16
64600;BMP280;6553;48.412;9.514;2023-05-07T05:11:57;71699.34;;;20.13
64600;BMP280;6553;48.412;9.514;2023-05-07T05:14:23;71696.44;;;20.16
64600;BMP280;6553;48.412;9.514;2023-05-07T05:16:50;71692.09;;;20.14
64600;BMP280;6553;48.412;9.514;2023-05-07T05:19:16;71696.44;;;20.16
64600;BMP280;6553;48.412;9.514;2023-05-07T05:21:43;71695.91;;;20.15
64600;BMP280;6553;48.412;9.514;2023-05-07T05:24:10;71688.28;;;20.13
64600;BMP280;6553;48.412;9.514;2023-05-07T05:26:36;71690.38;;;20.15
64600;BMP280;6553;48.412;9.514;2023-05-07T05:29:02;71694.31;;;20.14
64600;BMP280;6553;48.412;9.514;2023-05-07T05:31:30;71699.22;;;20.16
64600;BMP280;6553;48.412;9.514;2023-05-07T05:33:55;71689.84;;;20.15
64600;BMP280;6553;48.412;9.514;2023-05-07T05:36:22;71695.41;;;20.15
64600;BMP280;6553;48.412;9.514;2023-05-07T05:38:50;71691.56;;;20.14
64600;BMP280;6553;48.412;9.514;2023-05-07T05:41:16;71691.56;;;20.14
64600;BMP280;6553;48.412;9.514;2023-05-07T05:43:41;71688.28;;;20.13
64600;BMP280;6553;48.412;9.514;2023-05-07T05:46:07;71693.81;;;20.13
64600;BMP280;6553;48.412;9.514;2023-05-07T05:48:34;71691.03;;;20.13
64600;BMP280;6553;48.412;9.514;2023-05-07T05:51:02;71686.66;;;20.12
64600;BMP280;6553;48.412;9.514;2023-05-07T05:53:28;71694.88;;;20.14
64600;BMP280;6553;48.412;9.514;2023-05-07T05:55:54;71688.28;;;20.13
64600;BMP280;6553;48.412;9.514;2023-05-07T05:58:20;71696.59;;;20.13
64600;BMP280;6553;48.412;9.514;2023-05-07T06:00:52;71691.03;;;20.13
64600;BMP280;6553;48.412;9.514;2023-05-07T06:03:20;71694.31;;;20.14
64600;BMP280;6553;48.412;9.514;2023-05-07T06:05:47;71687.72;;;20.13
64600;BMP280;6553;48.412;9.514;2023-05-07T06:08:13;71692.75;;;20.12
64600;BMP280;6553;48.412;9.514;2023-05-07T06:10:39;71696.03;;;20.13
64600;BMP280;6553;48.412;9.514;2023-05-07T06:13:07;71693.81;;;20.13
64600;BMP280;6553;48.412;9.514;2023-05-07T06:15:35;71692.19;;;20.12
64600;BMP280;6553;48.412;9.514;2023-05-07T06:18:06;71690.50;;;20.13
64600;BMP280;6553;48.412;9.514;2023-05-07T06:20:31;71692.19;;;20.12
64600;BMP280;6553;48.412;9.514;2023-05-07T06:22:59;71688.78;;;20.14
64600;BMP280;6553;48.412;9.514;2023-05-07T06:25:25;71695.41;;;20.15
64600;BMP280;6553;48.412;9.514;2023-05-07T06:27:51;71694.88;;;20.14
64600;BMP280;6553;48.412;9.514;2023-05-07T06:30:16;71689.31;;;20.14
64600;BMP280;6553;48.412;9.514;2023-05-07T06:32:42;71693.69;;;20.16
64600;BMP280;6553;48.412;9.514;2023-05-07T06:35:09;71701.47;;;20.15
64600;BMP280;6553;48.412;9.514;2023-05-07T06:37:37;71692.63;;;20.15
64600;BMP280;6553;48.412;9.514;2023-05-07T06:40:09;71690.91;;;20.16
64600;BMP280;6553;48.412;9.514;2023-05-07T06:42:37;71691.44;;;20.16
64600;BMP280;6553;48.412;9.514;2023-05-07T06:45:21;71692.09;;;20.14
64600;BMP280;6553;48.412;9.514;2023-05-07T06:47:47;71692.09;;;20.14
64600;BMP280;6553;48.412;9.514;2023-05-07T06:50:13;71695.91;;;20.15
64600;BMP280;6553;48.412;9.514;2023-05-07T06:52:42;71691.56;;;20.14
64600;BMP280;6553;48.412;9.514;2023-05-07T06:55:09;71693.69;;;20.16
64600;BMP280;6553;48.412;9.514;2023-05-07T06:57:35;71693.28;;;20.13
64600;BMP280;6553;48.412;9.514;2023-05-07T07:00:01;71693.16;;;20.15
64600;BMP280;6553;48.412;9.514;2023-05-07T07:02:26;71695.91;;;20.15
64600;BMP280;6553;48.412;9.514;2023-05-07T07:04:52;71692.09;;;20.14
64600;BMP280;6553;48.412;9.514;2023-05-07T07:07:19;71695.41;;;20.15
64600;BMP280;6553;48.412;9.514;2023-05-07T07:09:46;71691.56;;;20.14
64600;BMP280;6553;48.412;9.514;2023-05-07T07:12:15;71701.34;;;20.18
64600;BMP280;6553;48.412;9.514;2023-05-07T07:14:42;71704.31;;;20.26
64600;BMP280;6553;48.412;9.514;2023-05-07T07:17:08;71704.19;;;20.28
64600;BMP280;6553;48.412;9.514;2023-05-07T07:19:33;71716.75;;;20.32
64600;BMP280;6553;48.412;9.514;2023-05-07T07:22:01;71710.56;;;20.34
64600;BMP280;6553;48.412;9.514;2023-05-07T07:24:27;71719.69;;;20.40
64600;BMP280;6553;48.412;9.514;2023-05-07T07:26:57;71709.50;;;20.33
64600;BMP280;6553;48.412;9.514;2023-05-07T07:29:24;71725.66;;;20.43
64600;BMP280;6553;48.412;9.514;2023-05-07T07:31:52;71731.19;;;20.43
64600;BMP280;6553;48.412;9.514;2023-05-07T07:34:19;71726.06;;;20.46
64600;BMP280;6553;48.412;9.514;2023-05-07T07:36:45;71727.78;;;20.45
64600;BMP280;6553;48.412;9.514;2023-05-07T07:39:10;71722.78;;;20.46
64600;BMP280;6553;48.412;9.514;2023-05-07T07:41:37;71732.06;;;20.49
64600;BMP280;6553;48.412;9.514;2023-05-07T07:44:03;71734.69;;;20.52
64600;BMP280;6553;48.412;9.514;2023-05-07T07:46:34;71734.03;;;20.54
64600;BMP280;6553;48.412;9.514;2023-05-07T07:49:00;71741.19;;;20.55
64600;BMP280;6553;48.412;9.514;2023-05-07T07:51:27;71739.88;;;20.60
64600;BMP280;6553;48.412;9.514;2023-05-07T07:53:53;71743.72;;;20.61
64600;BMP280;6553;48.412;9.514;2023-05-07T07:56:19;71745.84;;;20.63
64600;BMP280;6553;48.412;9.514;2023-05-07T07:58:45;71747.97;;;20.65
64600;BMP280;6553;48.412;9.514;2023-05-07T08:01:11;71744.16;;;20.64
64600;BMP280;6553;48.412;9.514;2023-05-07T08:03:38;71750.72;;;20.65
64600;BMP280;6553;48.412;9.514;2023-05-07T08:06:04;71746.78;;;20.66
64600;BMP280;6553;48.412;9.514;2023-05-07T08:08:32;71748.91;;;20.68
64600;BMP280;6553;48.412;9.514;2023-05-07T08:10:59;71750.50;;;20.70
64600;BMP280;6553;48.412;9.514;2023-05-07T08:13:29;71751.56;;;20.71
64600;BMP280;6553;48.412;9.514;2023-05-07T08:15:55;71759.25;;;20.73
64600;BMP280;6553;48.412;9.514;2023-05-07T08:18:21;71757.13;;;20.71
64600;BMP280;6553;48.412;9.514;2023-05-07T08:20:49;71752.22;;;20.69
64600;BMP280;6553;48.412;9.514;2023-05-07T08:23:19;71751.56;;;20.71
64600;BMP280;6553;48.412;9.514;2023-05-07T08:25:45;71751.56;;;20.71
64600;BMP280;6553;48.412;9.514;2023-05-07T08:28:13;71749.03;;;20.66
64600;BMP280;6553;48.412;9.514;2023-05-07T08:30:40;71749.03;;;20.66
64600;BMP280;6553;48.412;9.514;2023-05-07T08:33:06;71750.63;;;20.67
64600;BMP280;6553;48.412;9.514;2023-05-07T08:35:34;71754.34;;;20.71
64600;BMP280;6553;48.412;9.514;2023-05-07T08:38:00;71759.66;;;20.76
64600;BMP280;6553;48.412;9.514;2023-05-07T08:40:26;71761.25;;;20.77
64600;BMP280;6553;48.412;9.514;2023-05-07T08:42:55;71762.84;;;20.79
64600;BMP280;6553;48.412;9.514;2023-05-07T08:45:23;71761.66;;;20.80
64600;BMP280;6553;48.412;9.514;2023-05-07T08:47:58;71764.97;;;20.81
64600;BMP280;6553;48.412;9.514;2023-05-07T08:50:28;71762.31;;;20.78
64600;BMP280;6553;48.412;9.514;2023-05-07T08:52:54;71762.84;;;20.79
64600;BMP280;6553;48.412;9.514;2023-05-07T08:55:23;71763.38;;;20.79
64600;BMP280;6553;48.412;9.514;2023-05-07T08:57:50;71761.16;;;20.80
64600;BMP280;6553;48.412;9.514;2023-05-07T09:00:18;71762.84;;;20.79
64600;BMP280;6553;48.412;9.514;2023-05-07T09:02:48;71770.53;;;20.81
64600;BMP280;6553;48.412;9.514;2023-05-07T09:05:15;71768.69;;;20.84
64600;BMP280;6553;48.412;9.514;2023-05-07T09:07:41;71763.25;;;20.82
64600;BMP280;6553;48.412;9.514;2023-05-07T09:10:08;71767.09;;;20.83
64600;BMP280;6553;48.412;9.514;2023-05-07T09:12:36;71762.63;;;20.84
64600;BMP280;6553;48.412;9.514;2023-05-07T09:15:05;71764.84;;;20.83
64600;BMP280;6553;48.412;9.514;2023-05-07T09:17:32;71764.31;;;20.83
64600;BMP280;6553;48.412;9.514;2023-05-07T09:20:03;71765.41;;;20.84
64600;BMP280;6553;48.412;9.514;2023-05-07T09:22:38;71765.91;;;20.84
64600;BMP280;6553;48.412;9.514;2023-05-07T09:25:07;71767.63;;;20.83
64600;BMP280;6553;48.412;9.514;2023-05-07T09:27:35;71770.94;;;20.84
64600;BMP280;6553;48.412;9.514;2023-05-07T09:30:09;71764.84;;;20.83
64600;BMP280;6553;48.412;9.514;2023-05-07T09:32:37;71768.16;;;20.84
64600;BMP280;6553;48.412;9.514;2023-05-07T09:35:18;71767.75;;;20.81
64600;BMP280;6553;48.412;9.514;2023-05-07T09:37:48;71766.03;;;20.82
64600;BMP280;6553;48.412;9.514;2023-05-07T09:40:27;71763.91;;;20.80
64600;BMP280;6553;48.412;9.514;2023-05-07T09:42:55;71768.78;;;20.82
64600;BMP280;6553;48.412;9.514;2023-05-07T09:45:26;71773.19;;;20.83
64600;BMP280;6553;48.412;9.514;2023-05-07T09:47:57;71768.16;;;20.84
64600;BMP280;6553;48.412;9.514;2023-05-07T09:50:33;71775.41;;;20.83
64600;BMP280;6553;48.412;9.514;2023-05-07T09:53:03;71777.53;;;20.85
64600;BMP280;6553;48.412;9.514;2023-05-07T09:55:31;71768.69;;;20.84
64600;BMP280;6553;48.412;9.514;2023-05-07T09:57:58;71766.97;;;20.85
64600;BMP280;6553;48.412;9.514;2023-05-07T10:00:28;71769.19;;;20.85
64600;BMP280;6553;48.412;9.514;2023-05-07T10:03:04;71770.81;;;20.86
64600;BMP280;6553;48.412;9.514;2023-05-07T10:05:43;71787.28;;;21.02
64600;BMP280;6553;48.412;9.514;2023-05-07T10:08:11;71797.06;;;21.06
64600;BMP280;6553;48.412;9.514;2023-05-07T10:10:38;71801.31;;;21.10
64600;BMP280;6553;48.412;9.514;2023-05-07T10:13:09;71801.09;;;21.15
64600;BMP280;6553;48.412;9.514;2023-05-07T10:15:38;71805.56;;;21.14
64600;BMP280;6553;48.412;9.514;2023-05-07T10:18:06;71801.22;;;21.12
64600;BMP280;6553;48.412;9.514;2023-05-07T10:20:36;71808.25;;;21.16
64600;BMP280;6553;48.412;9.514;2023-05-07T10:23:05;71808.25;;;21.16
64600;BMP280;6553;48.412;9.514;2023-05-07T10:25:38;71803.34;;;21.14
64600;BMP280;6553;48.412;9.514;2023-05-07T10:28:19;71809.44;;;21.15
64600;BMP280;6553;48.412;9.514;2023-05-07T10:33:48;71802.56;;;21.19
64600;BMP280;6553;48.412;9.514;2023-05-07T10:36:19;71811.41;;;21.19
64600;BMP280;6553;48.412;9.514;2023-05-07T10:38:47;71806.41;;;21.20
64600;BMP280;6553;48.412;9.514;2023-05-07T10:41:13;71814.09;;;21.22
64600;BMP280;6553;48.412;9.514;2023-05-07T10:43:44;71808.53;;;21.22
64600;BMP280;6553;48.412;9.514;2023-05-07T10:46:19;71809.06;;;21.22
64600;BMP280;6553;48.412;9.514;2023-05-07T10:51:39;71811.84;;;21.22
64600;BMP280;6553;48.412;9.514;2023-05-07T10:56:48;71811.97;;;21.20
64600;BMP280;6553;48.412;9.514;2023-05-07T11:04:32;71817.81;;;21.25
64600;BMP280;6553;48.412;9.514;2023-05-07T11:07:30;71801.63;;;21.15
64600;BMP280;6553;48.412;9.514;2023-05-07T11:10:04;71788.75;;;21.06
64600;BMP280;6553;48.412;9.514;2023-05-07T11:15:14;71781.31;;;20.99
64600;BMP280;6553;48.412;9.514;2023-05-07T11:17:59;71781.97;;;20.97
64600;BMP280;6553;48.412;9.514;2023-05-07T11:20:58;71785.28;;;20.97
64600;BMP280;6553;48.412;9.514;2023-05-07T11:26:16;71779.31;;;20.94
64600;BMP280;6553;48.412;9.514;2023-05-07T11:28:43;71779.84;;;20.95
64600;BMP280;6553;48.412;9.514;2023-05-07T11:31:11;71781.03;;;20.93
64600;BMP280;6553;48.412;9.514;2023-05-07T11:33:38;71778.25;;;20.93
64600;BMP280;6553;48.412;9.514;2023-05-07T11:36:08;71784.31;;;20.94
64600;BMP280;6553;48.412;9.514;2023-05-07T11:38:39;71779.44;;;20.92
64600;BMP280;6553;48.412;9.514;2023-05-07T11:41:07;71785.41;;;20.95
64600;BMP280;6553;48.412;9.514;2023-05-07T11:43:33;71782.63;;;20.95
64600;BMP280;6553;48.412;9.514;2023-05-07T11:46:12;71778.78;;;20.94
64600;BMP280;6553;48.412;9.514;2023-05-07T11:48:38;71782.09;;;20.94
64600;BMP280;6553;48.412;9.514;2023-05-07T11:51:06;71783.78;;;20.93
64600;BMP280;6553;48.412;9.514;2023-05-07T11:53:40;71778.78;;;20.94
64600;BMP280;6553;48.412;9.514;2023-05-07T11:56:12;71777.72;;;20.93
64600;BMP280;6553;48.412;9.514;2023-05-07T11:58:41;71783.78;;;20.93
64600;BMP280;6553;48.412;9.514;2023-05-07T12:01:12;71776.53;;;20.94
64600;BMP280;6553;48.412;9.514;2023-05-07T12:03:41;71782.63;;;20.95
64600;BMP280;6553;48.412;9.514;2023-05-07T12:06:09;71777.72;;;20.93
64600;BMP280;6553;48.412;9.514;2023-05-07T12:08:40;71779.97;;;20.92
64600;BMP280;6553;48.412;9.514;2023-05-07T12:11:14;71776.66;;;20.92
64600;BMP280;6553;48.412;9.514;2023-05-07T12:13:41;71777.19;;;20.92
64600;BMP280;6553;48.412;9.514;2023-05-07T12:16:07;71775.06;;;20.90
64600;BMP280;6553;48.412;9.514;2023-05-07T12:18:35;71776.13;;;20.91
64600;BMP280;6553;48.412;9.514;2023-05-07T12:21:02;71779.44;;;20.92
64600;BMP280;6553;48.412;9.514;2023-05-07T12:23:29;71775.59;;;20.91
64600;BMP280;6553;48.412;9.514;2023-05-07T12:25:55;71777.84;;;20.90
64600;BMP280;6553;48.412;9.514;2023-05-07T12:28:21;71777.19;;;20.92
64600;BMP280;6553;48.412;9.514;2023-05-07T12:30:50;71775.47;;;20.93
64600;BMP280;6553;48.412;9.514;2023-05-07T12:33:19;71779.44;;;20.92
64600;BMP280;6553;48.412;9.514;2023-05-07T12:35:48;71777.72;;;20.93
64600;BMP280;6553;48.412;9.514;2023-05-07T12:38:17;71778.38;;;20.91
64600;BMP280;6553;48.412;9.514;2023-05-07T12:40:48;71779.97;;;20.92
64600;BMP280;6553;48.412;9.514;2023-05-07T12:43:23;71776.66;;;20.92
64600;BMP280;6553;48.412;9.514;2023-05-07T12:45:51;71776.13;;;20.91
64600;BMP280;6553;48.412;9.514;2023-05-07T12:48:19;71778.91;;;20.91
64600;BMP280;6553;48.412;9.514;2023-05-07T12:50:45;71776.13;;;20.91
64600;BMP280;6553;48.412;9.514;2023-05-07T12:53:14;71774.00;;;20.89
64600;BMP280;6553;48.412;9.514;2023-05-07T12:55:46;71775.06;;;20.90
64600;BMP280;6553;48.412;9.514;2023-05-07T12:58:17;71773.44;;;20.89
64600;BMP280;6553;48.412;9.514;2023-05-07T13:00:43;71773.44;;;20.89
64600;BMP280;6553;48.412;9.514;2023-05-07T13:03:10;71771.34;;;20.87
64600;BMP280;6553;48.412;9.514;2023-05-07T13:05:36;71773.06;;;20.86
64600;BMP280;6553;48.412;9.514;2023-05-07T13:08:02;71775.28;;;20.85
64600;BMP280;6553;48.412;9.514;2023-05-07T13:10:28;71773.06;;;20.86
64600;BMP280;6553;48.412;9.514;2023-05-07T13:12:54;71770.81;;;20.86
64600;BMP280;6553;48.412;9.514;2023-05-07T13:15:21;71773.06;;;20.86
64600;BMP280;6553;48.412;9.514;2023-05-07T13:17:47;71774.13;;;20.87
64600;BMP280;6553;48.412;9.514;2023-05-07T13:20:13;71770.81;;;20.86
64600;BMP280;6553;48.412;9.514;2023-05-07T13:22:39;71773.06;;;20.86
64600;BMP280;6553;48.412;9.514;2023-05-07T13:25:06;71777.44;;;20.87
64600;BMP280;6553;48.412;9.514;2023-05-07T13:27:32;71769.75;;;20.85
64600;BMP280;6553;48.412;9.514;2023-05-07T13:30:01;71767.63;;;20.83
64600;BMP280;6553;48.412;9.514;2023-05-07T13:32:26;71766.44;;;20.85
64600;BMP280;6553;48.412;9.514;2023-05-07T13:34:52;71769.19;;;20.85
64600;BMP280;6553;48.412;9.514;2023-05-07T13:37:18;71771.47;;;20.84
64600;BMP280;6553;48.412;9.514;2023-05-07T13:39:43;71764.31;;;20.83
64600;BMP280;6553;48.412;9.514;2023-05-07T13:42:11;71767.63;;;20.83
64600;BMP280;6553;48.412;9.514;2023-05-07T13:44:36;71769.75;;;20.85
64600;BMP280;6553;48.412;9.514;2023-05-07T13:47:02;71770.94;;;20.84
64600;BMP280;6553;48.412;9.514;2023-05-07T13:49:28;71767.63;;;20.83
64600;BMP280;6553;48.412;9.514;2023-05-07T13:51:53;71766.03;;;20.82
64600;BMP280;6553;48.412;9.514;2023-05-07T13:54:19;71759.44;;;20.81
64600;BMP280;6553;48.412;9.514;2023-05-07T13:56:45;71767.09;;;20.83
64600;BMP280;6553;48.412;9.514;2023-05-07T13:59:11;71764.97;;;20.81
64600;BMP280;6553;48.412;9.514;2023-05-07T14:01:37;71761.66;;;20.80
64600;BMP280;6553;48.412;9.514;2023-05-07T14:04:03;71767.22;;;20.80
64600;BMP280;6553;48.412;9.514;2023-05-07T14:06:29;71761.16;;;20.80
64600;BMP280;6553;48.412;9.514;2023-05-07T14:08:55;71764.97;;;20.81
64600;BMP280;6553;48.412;9.514;2023-05-07T14:11:23;71766.03;;;20.82
64600;BMP280;6553;48.412;9.514;2023-05-07T14:13:49;71766.03;;;20.82
64600;BMP280;6553;48.412;9.514;2023-05-07T14:16:15;71767.09;;;20.83
64600;BMP280;6553;48.412;9.514;2023-05-07T14:18:40;71768.25;;;20.81
64600;BMP280;6553;48.412;9.514;2023-05-07T14:21:06;71768.78;;;20.82
64600;BMP280;6553;48.412;9.514;2023-05-07T14:23:33;71769.88;;;20.83
64600;BMP280;6553;48.412;9.514;2023-05-07T14:25:58;71757.28;;;20.79
64600;BMP280;6553;48.412;9.514;2023-05-07T14:28:24;71758.47;;;20.77
64600;BMP280;6553;48.412;9.514;2023-05-07T14:30:50;71759.66;;;20.76
64600;BMP280;6553;48.412;9.514;2023-05-07T14:33:15;71764.53;;;20.78
64600;BMP280;6553;48.412;9.514;2023-05-07T14:35:41;71760.06;;;20.79
64600;BMP280;6553;48.412;9.514;2023-05-07T14:38:10;71766.16;;;20.79
64600;BMP280;6553;48.412;9.514;2023-05-07T14:40:36;71764.44;;;20.80
64600;BMP280;6553;48.412;9.514;2023-05-07T14:43:02;71767.75;;;20.81